createdAt,value
2018-12-17T00:01:26.811Z,94898.73
2018-12-17T00:03:58.512Z,94905.41
2018-12-17T00:06:29.854Z,94892.45
2018-12-17T00:08:59.582Z,94895.47
2018-12-17T00:11:28.920Z,94902.16
2018-12-17T00:13:58.291Z,94902.79
2018-12-17T00:16:28.091Z,94899.67
2018-12-17T00:18:57.588Z,94896.92
2018-12-17T00:21:27.007Z,94902.84
2018-12-17T00:23:56.926Z,94906.63
2018-12-17T00:26:26.165Z,94911.23
2018-12-17T00:28:55.809Z,94911.17
2018-12-17T00:31:25.629Z,94915.28
2018-12-17T00:33:55.063Z,94916.09
2018-12-17T00:36:24.287Z,94923.95
2018-12-17T00:38:53.765Z,94925.48
2018-12-17T00:41:23.125Z,94924.77
2018-12-17T00:43:52.780Z,94928.75
2018-12-17T00:46:22.504Z,94921.80
2018-12-17T00:48:51.963Z,94920.10
2018-12-17T00:51:22.084Z,94913.45
2018-12-17T00:53:51.796Z,94927.72
2018-12-17T00:56:21.361Z,94923.96
2018-12-17T00:58:51.827Z,94916.55
2018-12-17T01:01:21.973Z,94917.78
2018-12-17T01:03:51.295Z,94919.91
2018-12-17T01:06:20.748Z,94920.59
2018-12-17T01:08:50.463Z,94915.81
2018-12-17T01:11:19.754Z,94908.77
2018-12-17T01:13:49.915Z,94896.98
2018-12-17T01:16:19.722Z,94900.41
2018-12-17T01:18:49.377Z,94895.62
2018-12-17T01:21:19.243Z,94904.25
2018-12-17T01:23:49.391Z,94898.50
2018-12-17T01:26:19.150Z,94901.64
2018-12-17T01:28:49.500Z,94901.31
2018-12-17T01:31:18.924Z,94891.97
2018-12-17T01:33:48.287Z,94885.81
2018-12-17T01:36:17.870Z,94877.67
2018-12-17T01:38:47.187Z,94876.68
2018-12-17T01:41:16.835Z,94871.52
2018-12-17T01:43:46.282Z,94860.41
2018-12-17T01:46:15.583Z,94858.33
2018-12-17T01:48:45.279Z,94868.69
2018-12-17T01:51:14.642Z,94869.36
2018-12-17T01:53:44.330Z,94860.12
2018-12-17T01:56:14.265Z,94856.09
2018-12-17T01:58:43.853Z,94861.40
2018-12-17T02:01:13.256Z,94856.14
2018-12-17T02:03:42.639Z,94857.63
2018-12-17T02:06:12.233Z,94864.58
2018-12-17T02:08:42.951Z,94852.41
2018-12-17T02:11:12.254Z,94858.19
2018-12-17T02:13:41.707Z,94860.59
2018-12-17T02:16:11.251Z,94860.16
2018-12-17T02:18:40.684Z,94861.77
2018-12-17T02:21:10.120Z,94859.05
2018-12-17T02:23:39.957Z,94858.84
2018-12-17T02:26:09.526Z,94855.63
2018-12-17T02:28:39.579Z,94855.16
2018-12-17T02:31:09.274Z,94855.77
2018-12-17T02:33:38.928Z,94859.47
2018-12-17T02:36:08.574Z,94855.72
2018-12-17T02:38:37.864Z,94855.15
2018-12-17T02:41:07.465Z,94851.74
2018-12-17T02:43:38.155Z,94860.64
2018-12-17T02:46:07.524Z,94854.11
2018-12-17T02:48:36.816Z,94845.36
2018-12-17T02:51:06.448Z,94843.75
2018-12-17T02:53:36.047Z,94855.66
2018-12-17T02:56:05.589Z,94847.01
2018-12-17T02:58:35.415Z,94855.45
2018-12-17T03:01:04.820Z,94862.02
2018-12-17T03:03:34.487Z,94859.47
2018-12-17T03:06:03.782Z,94854.86
2018-12-17T03:08:33.568Z,94856.95
2018-12-17T03:11:03.878Z,94860.73
2018-12-17T03:13:33.633Z,94854.16
2018-12-17T03:16:02.917Z,94847.58
2018-12-17T03:18:32.637Z,94758.69
2018-12-17T03:21:02.135Z,94842.69
2018-12-17T03:23:31.892Z,94850.19
2018-12-17T03:26:01.324Z,94850.38
2018-12-17T03:28:30.772Z,94853.83
2018-12-17T03:31:00.524Z,94849.19
2018-12-17T03:33:30.090Z,94855.53
2018-12-17T03:35:59.564Z,94849.85
2018-12-17T03:38:29.097Z,94852.98
2018-12-17T03:40:58.792Z,94854.06
2018-12-17T03:43:28.122Z,94857.52
2018-12-17T03:45:57.830Z,94860.55
2018-12-17T03:48:27.065Z,94867.59
2018-12-17T03:50:56.378Z,94868.77
2018-12-17T03:53:25.997Z,94861.16
2018-12-17T03:55:55.315Z,94861.64
2018-12-17T03:58:24.886Z,94868.88
2018-12-17T04:00:54.802Z,94868.55
2018-12-17T04:03:24.127Z,94862.63
2018-12-17T04:05:53.673Z,94868.08
2018-12-17T04:08:23.275Z,94869.59
2018-12-17T04:10:52.875Z,94869.95
2018-12-17T04:13:22.415Z,94870.48
2018-12-17T04:15:51.974Z,94867.77
2018-12-17T04:18:21.793Z,94875.06
2018-12-17T04:20:51.570Z,94878.89
2018-12-17T04:23:20.995Z,94876.06
2018-12-17T04:25:52.704Z,94868.73
2018-12-17T04:28:22.394Z,94877.37
2018-12-17T04:30:51.901Z,94874.22
2018-12-17T04:33:21.734Z,94875.34
2018-12-17T04:35:51.392Z,94875.41
2018-12-17T04:38:20.842Z,94892.03
2018-12-17T04:40:50.147Z,94887.19
2018-12-17T04:43:19.612Z,94881.55
2018-12-17T04:45:49.124Z,94879.99
2018-12-17T04:48:18.663Z,94878.52
2018-12-17T04:50:48.339Z,94883.77
2018-12-17T04:53:18.393Z,94889.88
2018-12-17T04:55:47.729Z,94891.02
2018-12-17T04:58:17.200Z,94888.79
2018-12-17T05:00:46.867Z,94887.19
2018-12-17T05:03:16.464Z,94890.42
2018-12-17T05:05:45.725Z,94893.72
2018-12-17T05:08:15.125Z,94891.88
2018-12-17T05:10:44.623Z,94889.80
2018-12-17T05:13:14.211Z,94891.59
2018-12-17T05:15:43.393Z,94888.28
2018-12-17T05:18:12.767Z,94889.73
2018-12-17T05:20:42.158Z,94894.38
2018-12-17T05:23:11.609Z,94884.55
2018-12-17T05:25:41.070Z,94891.27
2018-12-17T05:28:10.728Z,94888.45
2018-12-17T05:30:41.249Z,94891.41
2018-12-17T05:33:11.028Z,94898.42
2018-12-17T05:35:40.301Z,94896.90
2018-12-17T05:38:09.908Z,94893.54
2018-12-17T05:40:39.168Z,94885.36
2018-12-17T05:43:08.439Z,94889.66
2018-12-17T05:45:38.029Z,94885.63
2018-12-17T05:48:07.408Z,94886.70
2018-12-17T05:50:37.861Z,94886.37
2018-12-17T05:53:07.372Z,94881.41
2018-12-17T05:55:36.955Z,94890.75
2018-12-17T05:58:06.673Z,94885.97
2018-12-17T06:00:36.178Z,94879.29
2018-12-17T06:03:05.883Z,94875.86
2018-12-17T06:05:35.405Z,94886.34
2018-12-17T06:08:05.013Z,94885.46
2018-12-17T06:10:34.512Z,94885.61
2018-12-17T06:13:04.000Z,94886.76
2018-12-17T06:15:33.643Z,94880.66
2018-12-17T06:18:03.376Z,94887.06
2018-12-17T06:20:33.059Z,94882.73
2018-12-17T06:23:02.665Z,94893.80
2018-12-17T06:25:32.337Z,94884.21
2018-12-17T06:28:01.891Z,94881.33
2018-12-17T06:30:31.449Z,94886.11
2018-12-17T06:33:00.925Z,94891.55
2018-12-17T06:35:30.179Z,94891.08
2018-12-17T06:37:59.704Z,94882.42
2018-12-17T06:40:30.179Z,94893.15
2018-12-17T06:42:59.553Z,94886.44
2018-12-17T06:45:29.023Z,94882.30
2018-12-17T06:47:58.853Z,94888.05
2018-12-17T06:50:28.469Z,94890.77
2018-12-17T06:52:58.117Z,94890.30
2018-12-17T06:55:27.743Z,94888.20
2018-12-17T06:57:57.606Z,94893.63
2018-12-17T07:00:27.087Z,94901.16
2018-12-17T07:02:56.590Z,94902.90
2018-12-17T07:05:25.994Z,94903.05
2018-12-17T07:07:55.500Z,94902.59
2018-12-17T07:10:24.824Z,94905.16
2018-12-17T07:12:54.350Z,94903.72
2018-12-17T07:15:24.352Z,94898.59
2018-12-17T07:17:54.097Z,94898.27
2018-12-17T07:20:23.644Z,94905.80
2018-12-17T07:22:53.171Z,94905.31
2018-12-17T07:25:22.515Z,94899.23
2018-12-17T07:27:51.988Z,94901.16
2018-12-17T07:30:21.584Z,94894.43
2018-12-17T07:32:50.948Z,94903.88
2018-12-17T07:35:20.347Z,94831.72
2018-12-17T07:37:50.307Z,94900.48
2018-12-17T07:40:19.738Z,94901.45
2018-12-17T07:42:49.173Z,94897.14
2018-12-17T07:45:19.350Z,94902.09
2018-12-17T07:47:49.500Z,94894.04
2018-12-17T07:50:19.123Z,94896.45
2018-12-17T07:52:48.559Z,94898.52
2018-12-17T07:55:17.942Z,94887.11
2018-12-17T07:57:47.510Z,94885.65
2018-12-17T08:00:17.177Z,94889.23
2018-12-17T08:02:46.759Z,94889.18
2018-12-17T08:05:16.364Z,94885.67
2018-12-17T08:07:45.803Z,94898.69
2018-12-17T08:10:15.051Z,94895.96
2018-12-17T08:12:44.508Z,94891.56
2018-12-17T08:15:13.900Z,94898.40
2018-12-17T08:17:43.502Z,94897.89
2018-12-17T08:20:12.835Z,94895.41
2018-12-17T08:22:43.260Z,94899.12
2018-12-17T08:25:12.725Z,94895.70
2018-12-17T08:27:42.795Z,94890.30
2018-12-17T08:30:12.083Z,94892.49
2018-12-17T08:32:41.723Z,94887.47
2018-12-17T08:35:11.501Z,94887.39
2018-12-17T08:37:41.151Z,94882.75
2018-12-17T08:40:10.466Z,94877.92
2018-12-17T08:42:39.952Z,94884.63
2018-12-17T08:45:09.575Z,94883.05
2018-12-17T08:47:39.090Z,94877.91
2018-12-17T08:50:09.357Z,94881.52
2018-12-17T08:52:38.575Z,94872.91
2018-12-17T08:55:08.334Z,94870.63
2018-12-17T08:57:38.188Z,94871.50
2018-12-17T09:00:11.191Z,94860.52
2018-12-17T09:02:41.192Z,94862.44
2018-12-17T09:05:10.881Z,94857.01
2018-12-17T09:07:40.357Z,94859.98
2018-12-17T09:10:09.619Z,94862.24
2018-12-17T09:12:38.857Z,94854.59
2018-12-17T09:15:08.403Z,94861.75
2018-12-17T09:17:38.827Z,94859.02
2018-12-17T09:20:08.999Z,94860.49
2018-12-17T09:22:38.437Z,94867.09
2018-12-17T09:25:08.298Z,94852.86
2018-12-17T09:27:37.572Z,94856.26
2018-12-17T09:30:07.985Z,94853.81
2018-12-17T09:32:37.575Z,94854.74
2018-12-17T09:35:07.225Z,94859.72
2018-12-17T09:37:36.787Z,94856.27
2018-12-17T09:40:07.592Z,94857.88
2018-12-17T09:42:37.154Z,94854.64
2018-12-17T09:45:07.720Z,94856.03
2018-12-17T09:47:37.035Z,94844.66
2018-12-17T09:50:06.563Z,94840.62
2018-12-17T09:52:37.198Z,94824.30
2018-12-17T09:55:06.725Z,94831.16
2018-12-17T09:57:36.294Z,94830.58
2018-12-17T10:00:06.937Z,94826.45
2018-12-17T10:02:36.244Z,94827.59
2018-12-17T10:05:06.640Z,94818.84
2018-12-17T10:07:35.858Z,94815.14
2018-12-17T10:10:06.260Z,94814.69
2018-12-17T10:12:35.861Z,94807.84
2018-12-17T10:15:06.473Z,94813.30
2018-12-17T10:17:36.100Z,94805.14
2018-12-17T10:20:06.072Z,94810.66
2018-12-17T10:22:35.816Z,94805.34
2018-12-17T10:25:06.212Z,94801.69
2018-12-17T10:27:36.826Z,94801.00
2018-12-17T10:30:07.277Z,94798.02
2018-12-17T10:32:36.814Z,94801.71
2018-12-17T10:35:06.430Z,94798.88
2018-12-17T10:37:35.864Z,94789.69
2018-12-17T10:40:06.784Z,94785.13
2018-12-17T10:42:36.179Z,94788.65
2018-12-17T10:45:06.740Z,94786.08
2018-12-17T10:47:36.261Z,94785.20
2018-12-17T10:50:06.711Z,94787.08
2018-12-17T10:52:36.339Z,94783.42
2018-12-17T10:55:06.371Z,94789.36
2018-12-17T10:57:36.095Z,94779.48
2018-12-17T11:00:06.849Z,94778.97
2018-12-17T11:02:36.513Z,94776.56
2018-12-17T11:05:15.317Z,94774.47
2018-12-17T11:07:44.825Z,94777.45
2018-12-17T11:10:14.287Z,94781.78
2018-12-17T11:12:43.951Z,94783.99
2018-12-17T11:15:13.781Z,94776.33
2018-12-17T11:17:44.702Z,94773.79
2018-12-17T11:20:14.403Z,94772.16
2018-12-17T11:22:44.127Z,94768.48
2018-12-17T11:25:13.558Z,94768.94
2018-12-17T11:27:42.821Z,94767.00
2018-12-17T11:30:12.988Z,94760.71
2018-12-17T11:32:44.400Z,94753.16
2018-12-17T11:35:14.132Z,94756.22
2018-12-17T11:37:43.373Z,94749.53
2018-12-17T11:40:12.820Z,94747.03
2018-12-17T11:42:42.605Z,94751.83
2018-12-17T11:45:12.214Z,94749.72
2018-12-17T11:47:41.730Z,94738.53
2018-12-17T11:50:11.674Z,94747.02
2018-12-17T11:52:40.924Z,94747.47
2018-12-17T11:55:10.728Z,94750.74
2018-12-17T11:58:15.064Z,94746.57
2018-12-17T12:01:17.361Z,94749.81
2018-12-17T12:03:47.027Z,94754.42
2018-12-17T12:06:16.863Z,94749.31
2018-12-17T12:08:46.301Z,94743.45
2018-12-17T12:11:15.926Z,94744.86
2018-12-17T12:13:45.508Z,94752.33
2018-12-17T12:16:14.989Z,94751.02
2018-12-17T12:18:44.730Z,94764.29
2018-12-17T12:21:14.310Z,94764.80
2018-12-17T12:23:44.066Z,94772.64
2018-12-17T12:26:13.505Z,94762.47
2018-12-17T12:28:42.752Z,94754.30
2018-12-17T12:31:12.110Z,94760.16
2018-12-17T12:33:41.775Z,94750.93
2018-12-17T12:36:11.003Z,94754.12
2018-12-17T12:38:40.279Z,94751.06
2018-12-17T12:41:10.096Z,94752.34
2018-12-17T12:43:39.455Z,94755.70
2018-12-17T12:46:09.157Z,94760.89
2018-12-17T12:48:38.877Z,94751.61
2018-12-17T12:51:08.170Z,94748.83
2018-12-17T12:53:37.677Z,94743.58
2018-12-17T12:56:07.217Z,94751.80
2018-12-17T12:58:36.825Z,94749.36
2018-12-17T13:01:07.784Z,94751.33
2018-12-17T13:03:37.886Z,94762.45
2018-12-17T13:06:07.363Z,94755.48
2018-12-17T13:08:36.628Z,94756.08
2018-12-17T13:11:06.126Z,94749.68
2018-12-17T13:13:35.543Z,94746.56
2018-12-17T13:16:05.091Z,94748.96
2018-12-17T13:18:34.927Z,94747.21
2018-12-17T13:21:04.394Z,94751.17
2018-12-17T13:23:33.907Z,94755.42
2018-12-17T13:26:03.707Z,94758.72
2018-12-17T13:28:33.377Z,94759.75
2018-12-17T13:31:02.823Z,94770.27
2018-12-17T13:33:32.657Z,94771.70
2018-12-17T13:36:01.923Z,94763.03
2018-12-17T13:38:31.397Z,94765.81
2018-12-17T13:41:01.325Z,94766.09
2018-12-17T13:43:30.861Z,94778.02
2018-12-17T13:46:00.692Z,94788.09
2018-12-17T13:48:30.215Z,94790.28
2018-12-17T13:51:03.673Z,94795.27
2018-12-17T13:53:33.447Z,94803.41
2018-12-17T13:56:03.314Z,94804.95
2018-12-17T13:58:33.034Z,94811.66
2018-12-17T14:01:02.420Z,94805.71
2018-12-17T14:03:32.005Z,94797.84
2018-12-17T14:06:01.418Z,94791.41
2018-12-17T14:08:30.714Z,94790.81
2018-12-17T14:11:00.882Z,94785.95
2018-12-17T14:13:30.441Z,94791.97
2018-12-17T14:16:05.049Z,94793.25
2018-12-17T14:18:39.780Z,94793.08
2018-12-17T14:21:14.529Z,94795.34
2018-12-17T14:23:44.091Z,94798.09
2018-12-17T14:26:13.509Z,94798.08
2018-12-17T14:28:42.993Z,94798.17
2018-12-17T14:31:12.497Z,94806.07
2018-12-17T14:33:42.235Z,94810.08
2018-12-17T14:36:11.677Z,94814.56
2018-12-17T14:38:41.171Z,94817.15
2018-12-17T14:41:10.716Z,94819.09
2018-12-17T14:43:40.153Z,94815.82
2018-12-17T14:46:09.510Z,94813.59
2018-12-17T14:48:39.023Z,94818.78
2018-12-17T14:51:08.609Z,94831.96
2018-12-17T14:53:39.568Z,94835.80
2018-12-17T14:56:09.050Z,94840.51
2018-12-17T14:58:44.437Z,94846.70
2018-12-17T15:01:11.194Z,94849.59
2018-12-17T15:03:40.532Z,94849.59
2018-12-17T15:06:09.982Z,94843.38
2018-12-17T15:08:39.505Z,94851.63
2018-12-17T15:11:08.832Z,94853.47
2018-12-17T15:13:38.613Z,94855.64
2018-12-17T15:16:07.851Z,94852.77
2018-12-17T15:18:37.343Z,94849.83
2018-12-17T15:21:07.472Z,94858.41
2018-12-17T15:23:37.030Z,94855.41
2018-12-17T15:26:06.547Z,94858.30
2018-12-17T15:28:36.509Z,94854.80
2018-12-17T15:31:06.156Z,94869.31
2018-12-17T15:33:35.509Z,94864.42
2018-12-17T15:36:04.923Z,94862.47
2018-12-17T15:38:35.815Z,94864.11
2018-12-17T15:41:05.187Z,94864.95
2018-12-17T15:43:34.724Z,94865.52
2018-12-17T15:46:04.195Z,94871.27
2018-12-17T15:48:33.534Z,94873.31
2018-12-17T15:51:03.086Z,94866.91
2018-12-17T15:53:32.570Z,94874.56
2018-12-17T15:56:01.963Z,94871.52
2018-12-17T15:58:32.830Z,94870.91
2018-12-17T16:01:02.389Z,94886.63
2018-12-17T16:03:31.666Z,94883.88
2018-12-17T16:06:01.299Z,94892.97
2018-12-17T16:08:31.661Z,94892.33
2018-12-17T16:11:01.226Z,94897.81
2018-12-17T16:13:30.751Z,94901.87
2018-12-17T16:16:00.288Z,94905.42
2018-12-17T16:18:29.672Z,94902.11
2018-12-17T16:20:58.977Z,94905.98
2018-12-17T16:23:28.314Z,94906.70
2018-12-17T16:25:57.683Z,94901.49
2018-12-17T16:28:27.159Z,94906.09
2018-12-17T16:30:56.894Z,94916.09
2018-12-17T16:33:29.925Z,94924.17
2018-12-17T16:35:58.068Z,94932.02
2018-12-17T16:38:27.362Z,94933.74
2018-12-17T16:40:56.707Z,94937.20
2018-12-17T16:43:26.352Z,94943.90
2018-12-17T16:45:55.769Z,94949.13
2018-12-17T16:48:25.217Z,94951.57
2018-12-17T16:50:54.998Z,94950.29
2018-12-17T16:53:24.475Z,94955.61
2018-12-17T16:55:53.770Z,94968.17
2018-12-17T16:58:23.473Z,94972.52
2018-12-17T17:00:52.860Z,94979.23
2018-12-17T17:03:22.528Z,94972.98
2018-12-17T17:05:53.379Z,94973.92
2018-12-17T17:08:22.957Z,94975.20
2018-12-17T17:10:52.792Z,94974.09
2018-12-17T17:13:22.080Z,94970.55
2018-12-17T17:15:51.662Z,94975.39
2018-12-17T17:18:21.046Z,94976.69
2018-12-17T17:20:50.779Z,94979.08
2018-12-17T17:23:20.157Z,94982.45
2018-12-17T17:25:50.251Z,94972.04
2018-12-17T17:28:19.667Z,94974.41
2018-12-17T17:30:49.439Z,94975.69
2018-12-17T17:33:18.904Z,94971.00
2018-12-17T17:35:48.407Z,94970.71
2018-12-17T17:38:18.179Z,94977.88
2018-12-17T17:40:47.709Z,94983.17
2018-12-17T17:43:17.120Z,95000.50
2018-12-17T17:45:46.836Z,94980.09
2018-12-17T17:48:16.235Z,94977.05
2018-12-17T17:50:45.882Z,94977.81
2018-12-17T17:53:15.708Z,94983.97
2018-12-17T17:55:45.164Z,94977.53
2018-12-17T17:58:14.750Z,94985.56
2018-12-17T18:00:44.658Z,94978.49
2018-12-17T18:03:14.221Z,94977.09
2018-12-17T18:05:43.875Z,94986.94
2018-12-17T18:08:13.563Z,94984.42
2018-12-17T18:10:42.837Z,94989.53
2018-12-17T18:13:12.904Z,94986.91
2018-12-17T18:15:42.481Z,94992.38
2018-12-17T18:18:11.870Z,95001.87
2018-12-17T18:20:41.449Z,95006.98
2018-12-17T18:23:10.957Z,95004.56
2018-12-17T18:25:40.454Z,95006.02
2018-12-17T18:28:10.013Z,95006.08
2018-12-17T18:30:39.501Z,95009.70
2018-12-17T18:33:08.921Z,95011.84
2018-12-17T18:35:38.259Z,95014.92
2018-12-17T18:38:07.590Z,95018.61
2018-12-17T18:40:36.880Z,95017.11
2018-12-17T18:43:06.435Z,95010.91
2018-12-17T18:45:35.771Z,95017.72
2018-12-17T18:48:05.187Z,95014.10
2018-12-17T18:50:34.915Z,95012.78
2018-12-17T18:53:04.450Z,95017.91
2018-12-17T18:55:34.264Z,95028.58
2018-12-17T18:58:04.228Z,95024.91
2018-12-17T19:00:33.797Z,95023.67
2018-12-17T19:03:03.076Z,95034.92
2018-12-17T19:05:32.312Z,95030.08
2018-12-17T19:08:01.522Z,95034.61
2018-12-17T19:11:01.170Z,95044.72
2018-12-17T19:13:30.764Z,95036.85
2018-12-17T19:16:00.029Z,95036.56
2018-12-17T19:18:29.369Z,95041.52
2018-12-17T19:20:58.731Z,95041.19
2018-12-17T19:23:28.282Z,95049.67
2018-12-17T19:25:57.622Z,95055.13
2018-12-17T19:28:26.931Z,95054.02
2018-12-17T19:30:56.437Z,95047.45
2018-12-17T19:33:25.958Z,95045.86
2018-12-17T19:35:55.498Z,95049.88
2018-12-17T19:38:25.113Z,95055.13
2018-12-17T19:40:54.460Z,95063.11
2018-12-17T19:43:25.100Z,95070.19
2018-12-17T19:45:54.463Z,95067.78
2018-12-17T19:48:24.111Z,95068.59
2018-12-17T19:50:53.911Z,95072.58
2018-12-17T19:53:23.354Z,95084.45
2018-12-17T19:55:54.068Z,95083.34
2018-12-17T19:58:23.287Z,95086.05
2018-12-17T20:00:52.704Z,95083.94
2018-12-17T20:03:22.674Z,95088.40
2018-12-17T20:05:52.533Z,95087.63
2018-12-17T20:08:22.029Z,95087.09
2018-12-17T20:10:51.712Z,95092.16
2018-12-17T20:13:22.318Z,95095.90
2018-12-17T20:15:52.132Z,95093.70
2018-12-17T20:18:21.941Z,95089.08
2018-12-17T20:20:51.549Z,95095.13
2018-12-17T20:23:21.395Z,95092.06
2018-12-17T20:25:50.642Z,95098.22
2018-12-17T20:28:20.083Z,95098.31
2018-12-17T20:30:49.685Z,95098.75
2018-12-17T20:33:18.902Z,95101.81
2018-12-17T20:35:48.622Z,95104.20
2018-12-17T20:38:18.313Z,95121.39
2018-12-17T20:40:47.827Z,95112.11
2018-12-17T20:43:17.315Z,95108.13
2018-12-17T20:45:46.768Z,95116.22
2018-12-17T20:48:16.488Z,95118.08
2018-12-17T20:50:45.731Z,95124.33
2018-12-17T20:53:15.029Z,95126.64
2018-12-17T20:55:44.619Z,95131.29
2018-12-17T20:58:13.979Z,95132.30
2018-12-17T21:00:43.243Z,95123.80
2018-12-17T21:03:12.699Z,95130.36
2018-12-17T21:05:42.171Z,95137.05
2018-12-17T21:08:11.719Z,95134.05
2018-12-17T21:10:41.350Z,95132.92
2018-12-17T21:13:10.731Z,95128.27
2018-12-17T21:15:40.353Z,95125.22
2018-12-17T21:18:09.756Z,95141.41
2018-12-17T21:20:39.473Z,95153.37
2018-12-17T21:23:09.281Z,95152.64
2018-12-17T21:25:39.000Z,95150.34
2018-12-17T21:28:08.636Z,95146.66
2018-12-17T21:30:38.460Z,95153.79
2018-12-17T21:33:07.937Z,95162.88
2018-12-17T21:35:37.218Z,95157.62
2018-12-17T21:38:06.805Z,95159.58
2018-12-17T21:40:36.194Z,95161.47
2018-12-17T21:43:06.112Z,95151.70
2018-12-17T21:45:35.486Z,95155.93
2018-12-17T21:48:04.931Z,95165.52
2018-12-17T21:50:34.744Z,95160.02
2018-12-17T21:53:04.091Z,95161.11
2018-12-17T21:55:35.184Z,95150.01
2018-12-17T21:58:04.763Z,95141.41
2018-12-17T22:00:34.014Z,95144.95
2018-12-17T22:03:03.868Z,95143.59
2018-12-17T22:05:33.244Z,95143.86
2018-12-17T22:08:02.913Z,95146.84
2018-12-17T22:10:35.663Z,95144.95
2018-12-17T22:13:05.558Z,95147.19
2018-12-17T22:15:35.208Z,95140.02
2018-12-17T22:18:04.720Z,95141.53
2018-12-17T22:20:34.058Z,95139.63
2018-12-17T22:23:03.739Z,95145.30
2018-12-17T22:25:33.252Z,95139.22
2018-12-17T22:28:03.783Z,95143.41
2018-12-17T22:30:33.659Z,95142.88
2018-12-17T22:33:03.122Z,95143.53
2018-12-17T22:35:32.624Z,95137.23
2018-12-17T22:38:02.092Z,95145.16
2018-12-17T22:40:31.633Z,95142.20
2018-12-17T22:43:01.197Z,95136.00
2018-12-17T22:45:30.623Z,95140.80
2018-12-17T22:48:00.038Z,95129.28
2018-12-17T22:50:29.556Z,95137.36
2018-12-17T22:52:59.320Z,95128.86
2018-12-17T22:55:28.597Z,95134.66
2018-12-17T22:57:57.941Z,95131.54
2018-12-17T23:00:27.739Z,95134.64
2018-12-17T23:02:59.469Z,95127.09
2018-12-17T23:05:29.010Z,95130.13
2018-12-17T23:07:58.226Z,95119.09
2018-12-17T23:10:45.327Z,95123.39
2018-12-17T23:13:25.768Z,95125.63
2018-12-17T23:16:07.291Z,95119.23
2018-12-17T23:18:35.825Z,95120.50
2018-12-17T23:21:07.342Z,95120.87
2018-12-17T23:23:38.747Z,95123.47
2018-12-17T23:26:10.279Z,95127.57
2018-12-17T23:28:40.100Z,95129.16
2018-12-17T23:31:10.009Z,95122.81
2018-12-17T23:33:39.374Z,95112.45
2018-12-17T23:36:09.447Z,95112.38
2018-12-17T23:38:38.799Z,95111.30
2018-12-17T23:41:08.343Z,95109.77
2018-12-17T23:43:37.826Z,95115.01
2018-12-17T23:46:07.356Z,95114.48
2018-12-17T23:48:36.855Z,95109.64
2018-12-17T23:51:06.109Z,95113.16
2018-12-17T23:53:35.897Z,95107.66
2018-12-17T23:56:05.554Z,95111.67
2018-12-17T23:58:35.092Z,95111.61
